createdAt,value
2023-01-25T00:00:32.750Z,1.20
2023-01-25T00:03:01.308Z,1.20
2023-01-25T00:06:02.004Z,1.20
2023-01-25T00:08:30.679Z,1.20
2023-01-25T00:10:59.359Z,1.20
2023-01-25T00:13:28.340Z,1.20
2023-01-25T00:16:23.682Z,1.20
2023-01-25T00:18:52.342Z,1.20
2023-01-25T00:21:24.187Z,1.20
2023-01-25T00:23:53.311Z,1.20
2023-01-25T00:26:54.169Z,1.20
2023-01-25T00:29:22.904Z,1.20
2023-01-25T00:32:29.464Z,1.20
2023-01-25T00:34:58.404Z,1.20
2023-01-25T00:37:32.310Z,1.20
2023-01-25T00:40:00.902Z,1.20
2023-01-25T00:42:29.603Z,1.30
2023-01-25T00:44:58.226Z,1.20
2023-01-25T00:47:26.840Z,1.20
2023-01-25T00:49:55.914Z,1.20
2023-01-25T00:52:24.456Z,1.30
2023-01-25T00:54:54.780Z,1.20
2023-01-25T00:57:23.179Z,1.30
2023-01-25T00:59:51.881Z,1.30
2023-01-25T01:02:20.521Z,1.30
2023-01-25T01:04:49.132Z,1.30
2023-01-25T01:07:40.940Z,1.30
2023-01-25T01:10:12.441Z,1.30
2023-01-25T01:13:02.704Z,1.30
2023-01-25T01:15:31.581Z,1.30
2023-01-25T01:18:00.218Z,1.20
2023-01-25T01:20:43.756Z,1.20
2023-01-25T01:23:14.192Z,1.30
2023-01-25T01:25:44.433Z,1.30
2023-01-25T01:28:14.049Z,1.20
2023-01-25T01:30:42.663Z,1.20
2023-01-25T01:33:11.057Z,1.20
2023-01-25T01:35:39.615Z,1.20
2023-01-25T01:38:08.345Z,1.20
2023-01-25T01:40:36.860Z,1.10
2023-01-25T01:43:17.163Z,1.20
2023-01-25T01:45:55.243Z,1.10
2023-01-25T01:48:32.667Z,1.10
2023-01-25T01:51:06.729Z,1.10
2023-01-25T01:54:03.704Z,1.00
2023-01-25T01:56:36.977Z,1.00
2023-01-25T01:59:07.768Z,1.00
2023-01-25T02:01:37.146Z,1.10
2023-01-25T02:04:08.387Z,1.00
2023-01-25T02:07:05.127Z,1.00
2023-01-25T02:09:35.587Z,1.10
2023-01-25T02:12:05.993Z,1.00
2023-01-25T02:14:37.426Z,1.00
2023-01-25T02:17:06.160Z,1.00
2023-01-25T02:19:45.628Z,1.00
2023-01-25T02:22:38.045Z,1.10
2023-01-25T02:25:32.891Z,1.10
2023-01-25T02:28:08.551Z,1.10
2023-01-25T02:30:37.215Z,1.10
2023-01-25T02:33:40.053Z,1.10
2023-01-25T02:36:20.283Z,1.10
2023-01-25T02:38:54.699Z,1.00
2023-01-25T02:41:40.464Z,1.00
2023-01-25T02:44:12.493Z,1.00
2023-01-25T02:46:43.253Z,1.00
2023-01-25T02:49:12.574Z,1.00
2023-01-25T02:51:43.377Z,1.10
2023-01-25T02:54:14.042Z,1.10
2023-01-25T02:56:44.447Z,1.00
2023-01-25T02:59:13.588Z,1.00
2023-01-25T03:01:44.270Z,1.00
2023-01-25T03:04:13.372Z,1.00
2023-01-25T03:06:46.236Z,1.10
2023-01-25T03:09:14.917Z,1.00
2023-01-25T03:11:45.146Z,1.00
2023-01-25T03:14:14.055Z,1.00
2023-01-25T03:16:42.657Z,1.00
2023-01-25T03:19:11.364Z,1.10
2023-01-25T03:22:07.926Z,1.00
2023-01-25T03:24:36.529Z,1.10
2023-01-25T03:27:14.294Z,1.00
2023-01-25T03:29:43.433Z,1.10
2023-01-25T03:32:11.734Z,1.10
2023-01-25T03:34:40.643Z,1.10
2023-01-25T03:37:09.299Z,1.20
2023-01-25T03:39:38.000Z,1.20
2023-01-25T03:42:08.576Z,1.10
2023-01-25T03:44:37.152Z,1.20
2023-01-25T03:47:05.978Z,1.10
2023-01-25T03:49:34.717Z,1.10
2023-01-25T03:52:03.283Z,1.10
2023-01-25T03:54:31.837Z,1.00
2023-01-25T03:57:00.404Z,1.00
2023-01-25T03:59:46.251Z,1.10
2023-01-25T04:02:14.999Z,1.10
2023-01-25T04:04:43.668Z,1.10
2023-01-25T04:07:12.503Z,1.10
2023-01-25T04:09:41.193Z,1.00
2023-01-25T04:12:10.029Z,1.00
2023-01-25T04:14:44.336Z,0.90
2023-01-25T04:17:15.065Z,0.90
2023-01-25T04:19:50.040Z,0.90
2023-01-25T04:22:18.934Z,0.90
2023-01-25T04:24:47.405Z,0.90
2023-01-25T04:27:16.025Z,0.90
2023-01-25T04:29:44.766Z,0.80
2023-01-25T04:32:15.077Z,0.80
2023-01-25T04:34:43.811Z,0.80
2023-01-25T04:37:12.413Z,0.90
2023-01-25T04:39:40.976Z,0.90
2023-01-25T04:42:09.548Z,0.90
2023-01-25T04:44:38.211Z,0.90
2023-01-25T04:47:33.361Z,0.80
2023-01-25T04:50:01.944Z,0.80
2023-01-25T04:52:30.549Z,0.80
2023-01-25T04:54:59.177Z,0.90
2023-01-25T04:57:27.908Z,0.90
2023-01-25T04:59:56.558Z,0.90
2023-01-25T05:02:25.235Z,0.90
2023-01-25T05:04:55.454Z,0.80
2023-01-25T05:07:24.178Z,0.80
2023-01-25T05:09:53.051Z,0.90
2023-01-25T05:12:21.702Z,0.90
2023-01-25T05:14:50.260Z,0.90
2023-01-25T05:17:19.189Z,0.90
2023-01-25T05:19:48.084Z,0.80
2023-01-25T05:22:21.183Z,0.90
2023-01-25T05:24:50.824Z,0.90
2023-01-25T05:27:20.092Z,0.90
2023-01-25T05:29:49.556Z,0.90
2023-01-25T05:32:20.447Z,1.00
2023-01-25T05:34:49.628Z,1.00
2023-01-25T05:37:29.056Z,1.00
2023-01-25T05:39:57.720Z,1.00
2023-01-25T05:42:26.385Z,0.90
2023-01-25T05:45:23.543Z,0.90
2023-01-25T05:47:55.166Z,1.00
2023-01-25T05:50:25.174Z,1.00
2023-01-25T05:52:55.569Z,1.00
2023-01-25T05:55:24.162Z,1.10
2023-01-25T05:57:52.852Z,1.00
2023-01-25T06:00:22.334Z,1.00
2023-01-25T06:02:51.236Z,1.00
2023-01-25T06:05:19.874Z,0.90
2023-01-25T06:07:48.502Z,0.90
2023-01-25T06:10:19.372Z,1.00
2023-01-25T06:12:48.171Z,1.00
2023-01-25T06:15:17.425Z,1.00
2023-01-25T06:17:46.031Z,1.00
2023-01-25T06:20:14.624Z,1.00
2023-01-25T06:22:43.316Z,1.00
2023-01-25T06:25:12.180Z,1.00
2023-01-25T06:27:44.233Z,1.00
2023-01-25T06:30:13.505Z,1.10
2023-01-25T06:32:42.003Z,1.10
2023-01-25T06:35:11.273Z,1.10
2023-01-25T06:37:40.044Z,1.10
2023-01-25T06:40:09.830Z,1.10
2023-01-25T06:42:38.366Z,1.10
2023-01-25T06:45:10.833Z,1.10
2023-01-25T06:47:40.518Z,1.10
2023-01-25T06:50:10.852Z,1.20
2023-01-25T06:52:39.863Z,1.20
2023-01-25T06:55:14.083Z,1.20
2023-01-25T06:57:42.843Z,1.20
2023-01-25T07:00:27.335Z,1.20
2023-01-25T07:03:03.913Z,1.20
2023-01-25T07:05:32.609Z,1.20
2023-01-25T07:08:01.241Z,1.20
2023-01-25T07:10:29.658Z,1.10
2023-01-25T07:12:58.306Z,1.10
2023-01-25T07:15:28.449Z,1.20
2023-01-25T07:18:05.547Z,1.10
2023-01-25T07:20:39.860Z,1.10
2023-01-25T07:23:08.643Z,1.20
2023-01-25T07:25:37.375Z,1.10
2023-01-25T07:28:06.327Z,1.10
2023-01-25T07:30:36.604Z,1.10
2023-01-25T07:33:56.398Z,1.10
2023-01-25T07:36:25.592Z,1.20
2023-01-25T07:38:55.280Z,1.20
2023-01-25T07:41:24.869Z,1.20
2023-01-25T07:43:53.898Z,1.20
2023-01-25T07:46:24.449Z,1.20
2023-01-25T07:48:54.755Z,1.20
2023-01-25T07:51:24.283Z,1.30
2023-01-25T07:53:54.710Z,1.30
2023-01-25T07:56:24.786Z,1.30
2023-01-25T07:58:55.215Z,1.40
2023-01-25T08:01:27.650Z,1.40
2023-01-25T08:03:57.876Z,1.40
2023-01-25T08:06:31.094Z,1.40
2023-01-25T08:09:01.067Z,1.40
2023-01-25T08:11:32.391Z,1.40
2023-01-25T08:14:02.065Z,1.30
2023-01-25T08:16:33.454Z,1.40
2023-01-25T08:19:03.720Z,1.40
2023-01-25T08:21:35.535Z,1.40
2023-01-25T08:24:06.542Z,1.40
2023-01-25T08:26:35.458Z,1.40
2023-01-25T08:29:04.151Z,1.40
2023-01-25T08:31:35.689Z,1.40
2023-01-25T08:34:05.529Z,1.40
2023-01-25T08:36:34.659Z,1.40
2023-01-25T08:39:06.693Z,1.40
2023-01-25T08:41:37.111Z,1.40
2023-01-25T08:44:31.031Z,1.40
2023-01-25T08:47:01.392Z,1.30
2023-01-25T08:49:31.284Z,1.40
2023-01-25T08:51:59.938Z,1.40
2023-01-25T08:54:28.546Z,1.40
2023-01-25T08:56:57.158Z,1.40
2023-01-25T08:59:25.825Z,1.40
2023-01-25T09:01:54.541Z,1.40
2023-01-25T09:04:50.550Z,1.50
2023-01-25T09:07:50.168Z,1.50
2023-01-25T09:10:19.094Z,1.60
2023-01-25T09:12:47.649Z,1.60
2023-01-25T09:15:16.239Z,1.50
2023-01-25T09:17:44.814Z,1.50
2023-01-25T09:20:16.159Z,1.50
2023-01-25T09:22:53.150Z,1.60
2023-01-25T09:25:22.877Z,1.60
2023-01-25T09:27:52.126Z,1.60
2023-01-25T09:30:24.654Z,1.70
2023-01-25T09:32:59.277Z,1.60
2023-01-25T09:35:29.863Z,1.70
2023-01-25T09:37:58.722Z,1.70
2023-01-25T09:40:38.590Z,1.70
2023-01-25T09:43:14.419Z,1.70
2023-01-25T09:45:43.246Z,1.80
2023-01-25T09:48:21.033Z,1.80
2023-01-25T09:51:08.237Z,1.80
2023-01-25T09:53:38.343Z,1.90
2023-01-25T09:56:14.449Z,1.90
2023-01-25T09:58:47.893Z,1.90
2023-01-25T10:01:41.054Z,2.00
2023-01-25T10:04:18.438Z,2.00
2023-01-25T10:07:00.951Z,1.90
2023-01-25T10:09:39.029Z,2.00
2023-01-25T10:12:16.874Z,2.00
2023-01-25T10:14:45.765Z,2.00
2023-01-25T10:17:28.910Z,2.00
2023-01-25T10:20:25.753Z,2.10
2023-01-25T10:23:13.966Z,2.10
2023-01-25T10:25:47.253Z,2.10
2023-01-25T10:28:34.227Z,2.00
2023-01-25T10:31:06.579Z,2.10
2023-01-25T10:33:41.227Z,2.10
2023-01-25T10:36:34.755Z,2.10
2023-01-25T10:39:07.951Z,2.20
2023-01-25T10:41:41.004Z,2.10
2023-01-25T10:44:26.264Z,2.20
2023-01-25T10:47:00.965Z,2.20
2023-01-25T10:49:39.104Z,2.20
2023-01-25T10:52:19.275Z,2.20
2023-01-25T10:54:51.363Z,2.30
2023-01-25T10:57:22.681Z,2.30
2023-01-25T10:59:54.257Z,2.20
2023-01-25T11:02:45.755Z,2.20
2023-01-25T11:05:34.735Z,2.20
2023-01-25T11:08:34.406Z,2.40
2023-01-25T11:11:17.156Z,2.40
2023-01-25T11:13:46.173Z,2.50
2023-01-25T11:16:34.978Z,2.50
2023-01-25T11:19:05.624Z,2.60
2023-01-25T11:21:38.177Z,2.60
2023-01-25T11:24:19.627Z,2.70
2023-01-25T11:27:18.493Z,2.70
2023-01-25T11:29:48.565Z,2.80
2023-01-25T11:32:22.894Z,2.90
2023-01-25T11:34:52.469Z,2.90
2023-01-25T11:37:42.689Z,2.80
2023-01-25T11:40:21.838Z,2.80
2023-01-25T11:43:04.754Z,2.80
2023-01-25T11:46:06.452Z,2.80
2023-01-25T11:49:06.855Z,2.90
2023-01-25T11:51:42.707Z,2.90
2023-01-25T11:54:36.486Z,3.00
2023-01-25T11:57:25.763Z,3.10
2023-01-25T12:00:10.653Z,3.10
2023-01-25T12:03:30.413Z,3.10
2023-01-25T12:06:06.774Z,3.10
2023-01-25T12:09:20.623Z,3.10
2023-01-25T12:12:02.781Z,3.00
2023-01-25T12:14:46.102Z,3.00
2023-01-25T12:17:39.850Z,3.00
2023-01-25T12:20:44.192Z,3.00
2023-01-25T12:23:36.780Z,3.00
2023-01-25T12:26:22.889Z,3.00
2023-01-25T12:28:56.134Z,3.10
2023-01-25T12:31:28.475Z,3.00
2023-01-25T12:34:03.719Z,3.00
2023-01-25T12:36:36.989Z,3.10
2023-01-25T12:39:08.688Z,3.20
2023-01-25T12:41:42.875Z,3.20
2023-01-25T12:44:20.378Z,3.10
2023-01-25T12:46:56.708Z,3.00
2023-01-25T12:49:54.967Z,3.00
2023-01-25T12:52:30.967Z,3.00
2023-01-25T12:55:02.798Z,3.00
2023-01-25T12:57:39.983Z,3.10
2023-01-25T13:00:19.131Z,3.00
2023-01-25T13:03:13.554Z,3.00
2023-01-25T13:05:49.737Z,3.00
2023-01-25T13:08:55.242Z,3.00
2023-01-25T13:11:27.213Z,3.00
2023-01-25T13:14:28.450Z,3.00
2023-01-25T13:17:24.056Z,3.00
2023-01-25T13:19:53.648Z,2.90
2023-01-25T13:22:59.089Z,2.90
2023-01-25T13:25:34.265Z,2.90
2023-01-25T13:28:43.397Z,2.90
2023-01-25T13:31:12.447Z,2.90
2023-01-25T13:33:46.310Z,2.90
2023-01-25T13:36:45.795Z,2.90
2023-01-25T13:39:45.762Z,2.90
2023-01-25T13:42:22.873Z,2.90
2023-01-25T13:44:53.759Z,2.80
2023-01-25T13:47:25.513Z,2.80
2023-01-25T13:50:01.922Z,2.70
2023-01-25T13:52:32.696Z,2.70
2023-01-25T13:55:03.237Z,2.70
2023-01-25T13:57:34.300Z,2.80
2023-01-25T14:00:10.622Z,2.70
2023-01-25T14:02:42.218Z,2.70
2023-01-25T14:05:20.656Z,2.60
2023-01-25T14:07:51.804Z,2.60
2023-01-25T14:10:47.609Z,2.60
2023-01-25T14:13:21.238Z,2.60
2023-01-25T14:15:58.826Z,2.60
2023-01-25T14:18:32.680Z,2.60
2023-01-25T14:21:14.030Z,2.70
2023-01-25T14:23:42.697Z,2.60
2023-01-25T14:26:21.407Z,2.60
2023-01-25T14:29:01.072Z,2.50
2023-01-25T14:31:34.375Z,2.50
2023-01-25T14:34:05.148Z,2.50
2023-01-25T14:36:35.620Z,2.40
2023-01-25T14:42:29.541Z,2.40
2023-01-25T14:44:58.701Z,2.40
2023-01-25T14:47:32.730Z,2.30
2023-01-25T14:50:34.879Z,2.30
2023-01-25T14:53:11.003Z,2.20
2023-01-25T14:56:05.044Z,2.10
2023-01-25T14:58:35.756Z,2.10
2023-01-25T15:01:04.974Z,2.10
2023-01-25T15:03:33.931Z,2.10
2023-01-25T15:06:05.935Z,2.00
2023-01-25T15:08:40.197Z,1.90
2023-01-25T15:11:39.023Z,1.90
2023-01-25T15:14:18.584Z,1.90
2023-01-25T15:16:47.845Z,1.80
2023-01-25T15:19:28.292Z,1.80
2023-01-25T15:21:58.643Z,1.80
2023-01-25T15:24:28.418Z,1.80
2023-01-25T15:26:57.792Z,1.70
2023-01-25T15:29:28.212Z,1.70
2023-01-25T15:31:57.981Z,1.60
2023-01-25T15:34:29.779Z,1.60
2023-01-25T15:36:58.581Z,1.70
2023-01-25T15:39:29.013Z,1.70
2023-01-25T15:41:57.852Z,1.70
2023-01-25T15:44:28.111Z,1.70
2023-01-25T15:46:57.120Z,1.70
2023-01-25T15:49:29.234Z,1.60
2023-01-25T15:52:20.748Z,1.60
2023-01-25T15:55:15.769Z,1.60
2023-01-25T15:57:47.086Z,1.50
2023-01-25T16:00:23.306Z,1.50
2023-01-25T16:02:52.117Z,1.50
2023-01-25T16:05:20.700Z,1.50
2023-01-25T16:07:49.482Z,1.50
2023-01-25T16:10:24.649Z,1.40
2023-01-25T16:12:53.443Z,1.50
2023-01-25T16:15:23.915Z,1.50
2023-01-25T16:17:52.609Z,1.40
2023-01-25T16:20:22.851Z,1.40
2023-01-25T16:22:51.630Z,1.30
2023-01-25T16:25:20.479Z,1.30
2023-01-25T16:27:51.198Z,1.30
2023-01-25T16:30:26.045Z,1.30
2023-01-25T16:32:55.071Z,1.30
2023-01-25T16:35:23.754Z,1.30
2023-01-25T16:37:52.514Z,1.20
2023-01-25T16:40:26.882Z,1.20
2023-01-25T16:43:27.018Z,1.20
2023-01-25T16:46:01.605Z,1.20
2023-01-25T16:48:30.256Z,1.20
2023-01-25T16:50:59.403Z,1.20
2023-01-25T16:53:28.061Z,1.20
2023-01-25T16:56:23.008Z,1.10
2023-01-25T16:58:52.755Z,1.10
2023-01-25T17:01:24.599Z,1.10
2023-01-25T17:03:53.810Z,1.10
2023-01-25T17:06:25.097Z,1.10
2023-01-25T17:08:56.156Z,1.20
2023-01-25T17:11:25.365Z,1.10
2023-01-25T17:13:56.079Z,1.10
2023-01-25T17:16:28.148Z,1.10
2023-01-25T17:19:05.942Z,1.10
2023-01-25T17:21:35.939Z,1.10
2023-01-25T17:24:05.061Z,1.10
2023-01-25T17:26:34.149Z,1.00
2023-01-25T17:29:03.395Z,1.00
2023-01-25T17:31:36.111Z,1.00
2023-01-25T17:34:06.884Z,1.00
2023-01-25T17:36:48.219Z,1.00
2023-01-25T17:39:18.300Z,1.00
2023-01-25T17:41:48.222Z,1.00
2023-01-25T17:44:21.608Z,1.00
2023-01-25T17:46:52.317Z,1.00
2023-01-25T17:49:22.657Z,0.90
2023-01-25T17:51:51.705Z,1.00
2023-01-25T17:54:20.956Z,0.90
2023-01-25T17:56:49.591Z,0.90
2023-01-25T17:59:18.865Z,0.90
2023-01-25T18:01:47.958Z,0.90
2023-01-25T18:04:18.538Z,0.90
2023-01-25T18:06:47.231Z,0.90
2023-01-25T18:09:16.217Z,0.90
2023-01-25T18:11:45.045Z,0.90
2023-01-25T18:14:17.158Z,0.90
2023-01-25T18:16:46.382Z,0.90
2023-01-25T18:19:15.453Z,1.00
2023-01-25T18:21:46.166Z,0.90
2023-01-25T18:24:32.202Z,0.90
2023-01-25T18:27:05.115Z,0.90
2023-01-25T18:29:41.835Z,0.90
2023-01-25T18:32:10.687Z,0.80
2023-01-25T18:34:39.298Z,0.80
2023-01-25T18:37:20.957Z,0.80
2023-01-25T18:39:51.388Z,0.90
2023-01-25T18:42:21.143Z,0.80
2023-01-25T18:44:50.170Z,0.80
2023-01-25T18:47:20.208Z,0.80
2023-01-25T18:49:49.644Z,0.90
2023-01-25T18:52:21.783Z,0.80
2023-01-25T18:54:51.161Z,0.80
2023-01-25T18:57:20.302Z,0.90
2023-01-25T18:59:49.243Z,0.90
2023-01-25T19:02:19.178Z,0.90
2023-01-25T19:04:48.356Z,0.90
2023-01-25T19:07:18.756Z,0.90
2023-01-25T19:09:52.617Z,0.90
2023-01-25T19:12:21.954Z,0.90
2023-01-25T19:14:51.703Z,0.90
2023-01-25T19:17:21.195Z,0.90
2023-01-25T19:19:50.605Z,0.80
2023-01-25T19:22:48.493Z,0.90
2023-01-25T19:25:18.943Z,0.90
2023-01-25T19:27:47.718Z,0.90
2023-01-25T19:30:16.889Z,0.90
2023-01-25T19:32:45.559Z,0.80
2023-01-25T19:35:16.046Z,0.80
2023-01-25T19:37:46.636Z,0.80
2023-01-25T19:40:15.471Z,0.80
2023-01-25T19:42:44.411Z,0.80
2023-01-25T19:45:13.576Z,0.70
2023-01-25T19:47:42.446Z,0.70
2023-01-25T19:50:12.690Z,0.70
2023-01-25T19:52:41.559Z,0.70
2023-01-25T19:55:36.880Z,0.70
2023-01-25T19:58:12.221Z,0.60
2023-01-25T20:00:41.060Z,0.70
2023-01-25T20:03:16.311Z,0.70
2023-01-25T20:05:45.234Z,0.70
2023-01-25T20:08:32.975Z,0.70
2023-01-25T20:11:30.293Z,0.70
2023-01-25T20:14:00.904Z,0.70
2023-01-25T20:16:30.737Z,0.60
2023-01-25T20:18:59.722Z,0.60
2023-01-25T20:21:29.876Z,0.70
2023-01-25T20:24:00.765Z,0.70
2023-01-25T20:26:33.195Z,0.70
2023-01-25T20:29:02.260Z,0.70
2023-01-25T20:31:33.994Z,0.70
2023-01-25T20:34:04.421Z,0.70
2023-01-25T20:36:34.951Z,0.70
2023-01-25T20:39:04.000Z,0.70
2023-01-25T20:41:34.755Z,0.70
2023-01-25T20:44:08.769Z,0.60
2023-01-25T20:46:38.878Z,0.60
2023-01-25T20:49:08.763Z,0.70
2023-01-25T20:51:37.775Z,0.60
2023-01-25T20:54:06.647Z,0.60
2023-01-25T20:56:38.451Z,0.60
2023-01-25T20:59:32.216Z,0.60
2023-01-25T21:02:02.467Z,0.60
2023-01-25T21:04:31.481Z,0.70
2023-01-25T21:07:00.023Z,0.50
2023-01-25T21:10:18.466Z,0.50
2023-01-25T21:12:48.755Z,0.50
2023-01-25T21:15:18.063Z,0.60
2023-01-25T21:17:52.449Z,0.60
2023-01-25T21:20:21.336Z,0.60
2023-01-25T21:22:49.941Z,0.50
2023-01-25T21:25:18.652Z,0.60
2023-01-25T21:27:49.726Z,0.60
2023-01-25T21:30:19.473Z,0.50
2023-01-25T21:32:49.024Z,0.50
2023-01-25T21:35:17.793Z,0.50
2023-01-25T21:37:46.499Z,0.50
2023-01-25T21:40:15.617Z,0.50
2023-01-25T21:42:44.440Z,0.50
2023-01-25T21:45:34.403Z,0.50
2023-01-25T21:48:03.433Z,0.50
2023-01-25T21:50:49.123Z,0.50
2023-01-25T21:53:17.809Z,0.40
2023-01-25T21:55:46.435Z,0.40
2023-01-25T21:58:19.162Z,0.40
2023-01-25T22:00:49.435Z,0.40
2023-01-25T22:03:18.412Z,0.40
2023-01-25T22:05:47.046Z,0.40
2023-01-25T22:08:15.804Z,0.40
2023-01-25T22:10:44.469Z,0.40
2023-01-25T22:13:13.408Z,0.40
2023-01-25T22:15:42.203Z,0.30
2023-01-25T22:18:12.769Z,0.40
2023-01-25T22:20:41.721Z,0.40
2023-01-25T22:23:10.478Z,0.40
2023-01-25T22:25:39.265Z,0.40
2023-01-25T22:28:15.865Z,0.40
2023-01-25T22:30:44.745Z,0.40
2023-01-25T22:33:14.813Z,0.40
2023-01-25T22:35:55.576Z,0.30
2023-01-25T22:38:24.426Z,0.30
2023-01-25T22:40:55.186Z,0.30
2023-01-25T22:43:25.041Z,0.30
2023-01-25T22:45:54.280Z,0.30
2023-01-25T22:48:24.821Z,0.20
2023-01-25T22:50:53.691Z,0.20
2023-01-25T22:53:22.332Z,0.30
2023-01-25T22:55:50.985Z,0.20
2023-01-25T22:58:19.586Z,0.20
2023-01-25T23:00:48.253Z,0.20
2023-01-25T23:03:17.348Z,0.30
2023-01-25T23:05:47.432Z,0.20
2023-01-25T23:08:16.853Z,0.20
2023-01-25T23:10:45.724Z,0.20
2023-01-25T23:13:14.390Z,0.20
2023-01-25T23:15:43.842Z,0.20
2023-01-25T23:18:29.458Z,0.20
2023-01-25T23:21:03.822Z,0.20
2023-01-25T23:23:32.681Z,0.30
2023-01-25T23:26:01.705Z,0.30
2023-01-25T23:28:31.018Z,0.30
2023-01-25T23:31:18.152Z,0.20
2023-01-25T23:34:12.959Z,0.30
2023-01-25T23:36:43.728Z,0.20
2023-01-25T23:39:14.442Z,0.20
2023-01-25T23:41:43.110Z,0.10
2023-01-25T23:44:11.638Z,0.20
2023-01-25T23:46:40.237Z,0.20
2023-01-25T23:49:08.782Z,0.10
2023-01-25T23:51:37.449Z,0.10
2023-01-25T23:54:07.900Z,0.10
2023-01-25T23:57:06.820Z,0.20
2023-01-25T23:59:35.995Z,0.10
